F/V Loktudi — FGQJ — position and weather

sailwx.info

Track history (hours):
 
Tides and Currents Weather Stations Pressure Air Temp Water Temp Dewpoint Dewpoint Depression Visibility Wind Speed Wind Dir Waves Ship Positions

F/V Loktudi

Last reported at 2018-Feb-24 02:04 UTC. Time now 2018-Feb-24 06:47 UTC.
Position N 47°50' W 004°11'.

Length 16 m; draft 3 m.

Type: Fishing. MMSI: 228376000.

Date/timePositionNaut miles runAvg speedWind from/ knotsBaromVisibWave heightAir tempDewpointWater temp
2018-Feb-24 02:04N 47°50' W 004°11'4 5.3
2018-Feb-24 01:15N 47°49' W 004°04'6 3.7
2018-Feb-23 23:32N 47°52' W 003°55'0 8.4
2018-Feb-23 23:30N 47°51' W 003°56'15 7.7
2018-Feb-23 21:31N 47°37' W 003°46'1 3.3
2018-Feb-23 21:09N 47°37' W 003°45'1 3.6
2018-Feb-23 20:59N 47°36' W 003°44'2 3.5
2018-Feb-23 20:30N 47°35' W 003°42'2 3.6
2018-Feb-23 20:00N 47°35' W 003°40'2 3.4
2018-Feb-23 19:30N 47°33' W 003°38'1 2.6
2018-Feb-23 19:00N 47°32' W 003°37'2 3.5
2018-Feb-23 18:30N 47°31' W 003°39'2 3.6
2018-Feb-23 18:00N 47°30' W 003°41'2 3.7
2018-Feb-23 17:25N 47°28' W 003°42'2 3.2
2018-Feb-23 16:50N 47°26' W 003°42'1 3.6
2018-Feb-23 16:29N 47°24' W 003°41'1 2.5
2018-Feb-23 16:00N 47°26' W 003°42'2 3.3
2018-Feb-23 15:30N 47°27' W 003°43'2 3.0
2018-Feb-23 14:51N 47°25' W 003°43'1 4.2
2018-Feb-23 14:30N 47°24' W 003°41'1 2.4
2018-Feb-23 14:00N 47°25' W 003°41'2 3.2
2018-Feb-23 13:30N 47°27' W 003°42'1 1.8
2018-Feb-23 13:00N 47°27' W 003°43'2 3.4
2018-Feb-23 12:27N 47°25' W 003°43'2 3.6
2018-Feb-23 11:54N 47°24' W 003°40'1 3.1
2018-Feb-23 11:30N 47°24' W 003°38'2 3.4
2018-Feb-23 11:00N 47°26' W 003°38'1 1.4
2018-Feb-23 10:30N 47°27' W 003°38'2 3.1
2018-Feb-23 10:00N 47°25' W 003°38'1 2.7
2018-Feb-23 09:30N 47°24' W 003°39'2 3.1
2018-Feb-23 09:00N 47°24' W 003°41'2 3.3
2018-Feb-23 08:30N 47°25' W 003°43'2 3.0
2018-Feb-23 08:00N 47°27' W 003°43'2 3.4
2018-Feb-23 07:30N 47°28' W 003°42'2 3.7
2018-Feb-23 07:00N 47°30' W 003°42'4 8.6
2018-Feb-23 06:30N 47°34' W 003°45'4 8.8
2018-Feb-23 06:00N 47°38' W 003°49'5 8.8
2018-Feb-23 05:28N 47°42' W 003°53'5 8.7
2018-Feb-23 04:56N 47°46' W 003°55'6 2.7
2018-Feb-23 02:44N 47°52' W 003°55'2 8.5
2018-Feb-23 02:29N 47°50' W 003°57'4 8.3
2018-Feb-23 02:00N 47°47' W 004°00'4 8.0
2018-Feb-23 01:29N 47°44' W 004°05'4 8.0
2018-Feb-23 00:58N 47°41' W 004°09'4 7.9
2018-Feb-23 00:30N 47°39' W 004°13'4 7.9
2018-Feb-22 23:58N 47°36' W 004°18'4 7.8
2018-Feb-22 23:30N 47°33' W 004°22'6 0.1
2018-Feb-21 06:06N 47°38' W 004°19'3 8.7
2018-Feb-21 05:42N 47°41' W 004°16'9 8.2
2018-Feb-21 04:32N 47°49' W 004°09'1 7.3
2018-Feb-21 04:25N 47°50' W 004°09'1 2.5
2018-Feb-21 04:00N 47°50' W 004°11'0 0.0
2018-Feb-21 03:28N 47°50' W 004°11'0 0.0
2018-Feb-21 02:53N 47°50' W 004°11'0 0.0
2018-Feb-21 02:30N 47°50' W 004°11'0 0.0
2018-Feb-21 01:53N 47°50' W 004°11'0 0.0
2018-Feb-21 00:53N 47°50' W 004°11'0 0.0
2018-Feb-21 00:29N 47°50' W 004°11'0 0.0
2018-Feb-20 23:53N 47°50' W 004°11'0 0.0
2018-Feb-20 23:01N 47°50' W 004°11'0 0.0
2018-Feb-20 22:53N 47°50' W 004°11'0 0.0
2018-Feb-20 22:23N 47°50' W 004°11'0 0.0
2018-Feb-20 21:53N 47°50' W 004°11'0 0.0
2018-Feb-20 21:29N 47°50' W 004°11'0 0.0
2018-Feb-20 20:57N 47°50' W 004°11'0 0.0
2018-Feb-20 20:28N 47°50' W 004°11'0 0.0
2018-Feb-20 19:56N 47°50' W 004°11'0 0.0
2018-Feb-20 19:29N 47°50' W 004°11'0 0.0
2018-Feb-20 18:58N 47°50' W 004°11'0 0.0
2018-Feb-20 18:30N 47°50' W 004°11'0 0.0
2018-Feb-20 17:53N 47°50' W 004°11'0 0.0
2018-Feb-20 17:18N 47°50' W 004°11'0 0.0
2018-Feb-20 16:58N 47°50' W 004°11'0 0.0
2018-Feb-20 16:00N 47°50' W 004°11'0 0.0
2018-Feb-20 15:25N 47°50' W 004°11'0 0.0
2018-Feb-20 14:53N 47°50' W 004°11'0 0.0
2018-Feb-20 14:30N 47°50' W 004°11'0 0.0
2018-Feb-20 13:40N 47°50' W 004°11'0 0.0
2018-Feb-20 11:53N 47°50' W 004°11'0 0.0
2018-Feb-20 11:20N 47°50' W 004°11'0 0.0
2018-Feb-20 10:52N 47°50' W 004°11'0 0.0
2018-Feb-20 10:21N 47°50' W 004°11'0 0.0
2018-Feb-20 09:44N 47°50' W 004°11'0 0.0
2018-Feb-20 09:07N 47°50' W 004°11'0 0.0
2018-Feb-20 08:59N 47°50' W 004°11'0 0.0
2018-Feb-20 08:30N 47°50' W 004°11'  
2018-Feb-17 06:19N 47°50' W 004°11'0 0.0
2018-Feb-17 05:58N 47°50' W 004°11'0 0.0
2018-Feb-17 05:25N 47°50' W 004°11'0 0.0
2018-Feb-17 04:58N 47°50' W 004°11'0 0.0
2018-Feb-17 04:21N 47°50' W 004°11'0 0.0
2018-Feb-17 03:57N 47°50' W 004°11'0 0.0
2018-Feb-17 03:28N 47°50' W 004°11'0 0.0
2018-Feb-17 02:55N 47°50' W 004°11'0 0.0
2018-Feb-17 02:26N 47°50' W 004°11'0 0.0
2018-Feb-17 02:00N 47°50' W 004°11'0 0.0
2018-Feb-16 23:38N 47°50' W 004°11'0 0.0
2018-Feb-16 22:38N 47°50' W 004°11'0 0.0
2018-Feb-16 21:38N 47°50' W 004°11'0 0.0
2018-Feb-16 17:38N 47°50' W 004°10'1 2.2
2018-Feb-16 17:17N 47°50' W 004°09'3 8.4
2018-Feb-16 16:57N 47°47' W 004°09'6 8.8
2018-Feb-16 16:20N 47°42' W 004°11'3 8.9
2018-Feb-16 15:59N 47°39' W 004°12'8 7.4
2018-Feb-16 14:55N 47°31' W 004°15'9 2.0
2018-Feb-16 10:17N 47°22' W 004°13'3 3.0
2018-Feb-16 09:16N 47°22' W 004°18'12 0.7
2018-Feb-15 15:53N 47°32' W 004°07'4 3.6
2018-Feb-15 14:41N 47°35' W 004°11'1 2.9
2018-Feb-15 14:12N 47°36' W 004°13'15 3.0
2018-Feb-15 09:09N 47°28' W 003°54'0 3.1
2018-Feb-15 09:00N 47°29' W 003°54'2 3.2
2018-Feb-15 08:30N 47°30' W 003°56'2 3.2
2018-Feb-15 07:55N 47°31' W 003°58'12 4.9
2018-Feb-15 05:28N 47°41' W 004°07'7 8.2
2018-Feb-15 04:37N 47°48' W 004°08'2 7.8
2018-Feb-15 04:20N 47°50' W 004°09'  
Track history (hours):
 
Tides and Currents Weather Stations Pressure Air Temp Water Temp Dewpoint Dewpoint Depression Visibility Wind Speed Wind Dir Waves Ship Positions

F/V Loktudi

Last reported at 2018-Feb-24 02:04 UTC. Time now 2018-Feb-24 06:47 UTC.
Position N 47°50' W 004°11'.

Length 16 m; draft 3 m.

Type: Fishing. MMSI: 228376000.

Date/timePositionNaut miles runAvg speedWind from/ knotsBaromVisibWave heightAir tempDewpointWater temp
2018-Feb-24 02:04N 47°50' W 004°11'4 5.3
2018-Feb-24 01:15N 47°49' W 004°04'6 3.7
2018-Feb-23 23:32N 47°52' W 003°55'0 8.4
2018-Feb-23 23:30N 47°51' W 003°56'15 7.7
2018-Feb-23 21:31N 47°37' W 003°46'1 3.3
2018-Feb-23 21:09N 47°37' W 003°45'1 3.6
2018-Feb-23 20:59N 47°36' W 003°44'2 3.5
2018-Feb-23 20:30N 47°35' W 003°42'2 3.6
2018-Feb-23 20:00N 47°35' W 003°40'2 3.4
2018-Feb-23 19:30N 47°33' W 003°38'1 2.6
2018-Feb-23 19:00N 47°32' W 003°37'2 3.5
2018-Feb-23 18:30N 47°31' W 003°39'2 3.6
2018-Feb-23 18:00N 47°30' W 003°41'2 3.7
2018-Feb-23 17:25N 47°28' W 003°42'2 3.2
2018-Feb-23 16:50N 47°26' W 003°42'1 3.6
2018-Feb-23 16:29N 47°24' W 003°41'1 2.5
2018-Feb-23 16:00N 47°26' W 003°42'2 3.3
2018-Feb-23 15:30N 47°27' W 003°43'2 3.0
2018-Feb-23 14:51N 47°25' W 003°43'1 4.2
2018-Feb-23 14:30N 47°24' W 003°41'1 2.4
2018-Feb-23 14:00N 47°25' W 003°41'2 3.2
2018-Feb-23 13:30N 47°27' W 003°42'1 1.8
2018-Feb-23 13:00N 47°27' W 003°43'2 3.4
2018-Feb-23 12:27N 47°25' W 003°43'2 3.6
2018-Feb-23 11:54N 47°24' W 003°40'1 3.1
2018-Feb-23 11:30N 47°24' W 003°38'2 3.4
2018-Feb-23 11:00N 47°26' W 003°38'1 1.4
2018-Feb-23 10:30N 47°27' W 003°38'2 3.1
2018-Feb-23 10:00N 47°25' W 003°38'1 2.7
2018-Feb-23 09:30N 47°24' W 003°39'2 3.1
2018-Feb-23 09:00N 47°24' W 003°41'2 3.3
2018-Feb-23 08:30N 47°25' W 003°43'2 3.0
2018-Feb-23 08:00N 47°27' W 003°43'2 3.4
2018-Feb-23 07:30N 47°28' W 003°42'2 3.7
2018-Feb-23 07:00N 47°30' W 003°42'4 8.6
2018-Feb-23 06:30N 47°34' W 003°45'4 8.8
2018-Feb-23 06:00N 47°38' W 003°49'5 8.8
2018-Feb-23 05:28N 47°42' W 003°53'5 8.7
2018-Feb-23 04:56N 47°46' W 003°55'6 2.7
2018-Feb-23 02:44N 47°52' W 003°55'2 8.5
2018-Feb-23 02:29N 47°50' W 003°57'4 8.3
2018-Feb-23 02:00N 47°47' W 004°00'4 8.0
2018-Feb-23 01:29N 47°44' W 004°05'4 8.0
2018-Feb-23 00:58N 47°41' W 004°09'4 7.9
2018-Feb-23 00:30N 47°39' W 004°13'4 7.9
2018-Feb-22 23:58N 47°36' W 004°18'4 7.8
2018-Feb-22 23:30N 47°33' W 004°22'6 0.1
2018-Feb-21 06:06N 47°38' W 004°19'3 8.7
2018-Feb-21 05:42N 47°41' W 004°16'9 8.2
2018-Feb-21 04:32N 47°49' W 004°09'1 7.3
2018-Feb-21 04:25N 47°50' W 004°09'1 2.5
2018-Feb-21 04:00N 47°50' W 004°11'0 0.0
2018-Feb-21 03:28N 47°50' W 004°11'0 0.0
2018-Feb-21 02:53N 47°50' W 004°11'0 0.0
2018-Feb-21 02:30N 47°50' W 004°11'0 0.0
2018-Feb-21 01:53N 47°50' W 004°11'0 0.0
2018-Feb-21 00:53N 47°50' W 004°11'0 0.0
2018-Feb-21 00:29N 47°50' W 004°11'0 0.0
2018-Feb-20 23:53N 47°50' W 004°11'0 0.0
2018-Feb-20 23:01N 47°50' W 004°11'0 0.0
2018-Feb-20 22:53N 47°50' W 004°11'0 0.0
2018-Feb-20 22:23N 47°50' W 004°11'0 0.0
2018-Feb-20 21:53N 47°50' W 004°11'0 0.0
2018-Feb-20 21:29N 47°50' W 004°11'0 0.0
2018-Feb-20 20:57N 47°50' W 004°11'0 0.0
2018-Feb-20 20:28N 47°50' W 004°11'0 0.0
2018-Feb-20 19:56N 47°50' W 004°11'0 0.0
2018-Feb-20 19:29N 47°50' W 004°11'0 0.0
2018-Feb-20 18:58N 47°50' W 004°11'0 0.0
2018-Feb-20 18:30N 47°50' W 004°11'0 0.0
2018-Feb-20 17:53N 47°50' W 004°11'0 0.0
2018-Feb-20 17:18N 47°50' W 004°11'0 0.0
2018-Feb-20 16:58N 47°50' W 004°11'0 0.0
2018-Feb-20 16:00N 47°50' W 004°11'0 0.0
2018-Feb-20 15:25N 47°50' W 004°11'0 0.0
2018-Feb-20 14:53N 47°50' W 004°11'0 0.0
2018-Feb-20 14:30N 47°50' W 004°11'0 0.0
2018-Feb-20 13:40N 47°50' W 004°11'0 0.0
2018-Feb-20 11:53N 47°50' W 004°11'0 0.0
2018-Feb-20 11:20N 47°50' W 004°11'0 0.0
2018-Feb-20 10:52N 47°50' W 004°11'0 0.0
2018-Feb-20 10:21N 47°50' W 004°11'0 0.0
2018-Feb-20 09:44N 47°50' W 004°11'0 0.0
2018-Feb-20 09:07N 47°50' W 004°11'0 0.0
2018-Feb-20 08:59N 47°50' W 004°11'0 0.0
2018-Feb-20 08:30N 47°50' W 004°11'  
2018-Feb-17 06:19N 47°50' W 004°11'0 0.0
2018-Feb-17 05:58N 47°50' W 004°11'0 0.0
2018-Feb-17 05:25N 47°50' W 004°11'0 0.0
2018-Feb-17 04:58N 47°50' W 004°11'0 0.0
2018-Feb-17 04:21N 47°50' W 004°11'0 0.0
2018-Feb-17 03:57N 47°50' W 004°11'0 0.0
2018-Feb-17 03:28N 47°50' W 004°11'0 0.0
2018-Feb-17 02:55N 47°50' W 004°11'0 0.0
2018-Feb-17 02:26N 47°50' W 004°11'0 0.0
2018-Feb-17 02:00N 47°50' W 004°11'0 0.0
2018-Feb-16 23:38N 47°50' W 004°11'0 0.0
2018-Feb-16 22:38N 47°50' W 004°11'0 0.0
2018-Feb-16 21:38N 47°50' W 004°11'0 0.0
2018-Feb-16 17:38N 47°50' W 004°10'1 2.2
2018-Feb-16 17:17N 47°50' W 004°09'3 8.4
2018-Feb-16 16:57N 47°47' W 004°09'6 8.8
2018-Feb-16 16:20N 47°42' W 004°11'3 8.9
2018-Feb-16 15:59N 47°39' W 004°12'8 7.4
2018-Feb-16 14:55N 47°31' W 004°15'9 2.0
2018-Feb-16 10:17N 47°22' W 004°13'3 3.0
2018-Feb-16 09:16N 47°22' W 004°18'12 0.7
2018-Feb-15 15:53N 47°32' W 004°07'4 3.6
2018-Feb-15 14:41N 47°35' W 004°11'1 2.9
2018-Feb-15 14:12N 47°36' W 004°13'15 3.0
2018-Feb-15 09:09N 47°28' W 003°54'0 3.1
2018-Feb-15 09:00N 47°29' W 003°54'2 3.2
2018-Feb-15 08:30N 47°30' W 003°56'2 3.2
2018-Feb-15 07:55N 47°31' W 003°58'12 4.9
2018-Feb-15 05:28N 47°41' W 004°07'7 8.2
2018-Feb-15 04:37N 47°48' W 004°08'2 7.8
2018-Feb-15 04:20N 47°50' W 004°09'  

Dump ship's entire track history